sensor_id;sensor_type;location;lat;lon;timestamp;pressure;altitude;pressure_sealevel;temperature;humidity
58598;BME280;60319;46.908;16.848;2022-10-15T00:03:21;99688.03;;;7.19;100.00
58598;BME280;60319;46.908;16.848;2022-10-15T00:08:21;99689.50;;;7.23;100.00
58598;BME280;60319;46.908;16.848;2022-10-15T00:13:21;99690.81;;;7.29;100.00
58598;BME280;60319;46.908;16.848;2022-10-15T00:18:22;99687.81;;;7.34;100.00
58598;BME280;60319;46.908;16.848;2022-10-15T00:23:22;99678.28;;;7.31;100.00
58598;BME280;60319;46.908;16.848;2022-10-15T00:28:23;99675.06;;;7.27;100.00
58598;BME280;60319;46.908;16.848;2022-10-15T00:33:23;99656.91;;;7.23;100.00
58598;BME280;60319;46.908;16.848;2022-10-15T00:38:24;99661.59;;;7.19;100.00
58598;BME280;60319;46.908;16.848;2022-10-15T00:43:52;99655.22;;;7.22;100.00
58598;BME280;60319;46.908;16.848;2022-10-15T00:49:01;99655.91;;;7.12;100.00
58598;BME280;60319;46.908;16.848;2022-10-15T00:54:02;99664.34;;;7.06;100.00
58598;BME280;60319;46.908;16.848;2022-10-15T00:59:04;99662.53;;;7.06;100.00
58598;BME280;60319;46.908;16.848;2022-10-15T01:04:06;99648.00;;;7.01;100.00
58598;BME280;60319;46.908;16.848;2022-10-15T01:09:07;99644.94;;;6.94;100.00
58598;BME280;60319;46.908;16.848;2022-10-15T01:14:34;99627.53;;;6.91;100.00
58598;BME280;60319;46.908;16.848;2022-10-15T01:25:04;99620.31;;;6.82;100.00
58598;BME280;60319;46.908;16.848;2022-10-15T01:30:17;99620.66;;;6.77;100.00
58598;BME280;60319;46.908;16.848;2022-10-15T01:45:51;99611.28;;;6.73;100.00
58598;BME280;60319;46.908;16.848;2022-10-15T01:50:56;99616.81;;;6.81;100.00
58598;BME280;60319;46.908;16.848;2022-10-15T01:56:02;99619.81;;;6.88;100.00
58598;BME280;60319;46.908;16.848;2022-10-15T02:01:04;99605.91;;;6.98;100.00
58598;BME280;60319;46.908;16.848;2022-10-15T02:06:07;99606.38;;;7.03;100.00
58598;BME280;60319;46.908;16.848;2022-10-15T02:11:17;99598.94;;;7.08;100.00
58598;BME280;60319;46.908;16.848;2022-10-15T02:16:24;99587.41;;;7.09;100.00
58598;BME280;60319;46.908;16.848;2022-10-15T02:21:46;99580.56;;;7.06;100.00
58598;BME280;60319;46.908;16.848;2022-10-15T02:26:47;99582.00;;;6.99;100.00
58598;BME280;60319;46.908;16.848;2022-10-15T02:31:51;99580.56;;;6.95;100.00
58598;BME280;60319;46.908;16.848;2022-10-15T02:36:53;99578.25;;;6.90;100.00
58598;BME280;60319;46.908;16.848;2022-10-15T02:41:56;99582.09;;;6.86;100.00
58598;BME280;60319;46.908;16.848;2022-10-15T02:46:57;99575.63;;;6.90;100.00
58598;BME280;60319;46.908;16.848;2022-10-15T02:51:58;99568.41;;;6.92;100.00
58598;BME280;60319;46.908;16.848;2022-10-15T02:57:02;99570.91;;;6.94;100.00
58598;BME280;60319;46.908;16.848;2022-10-15T03:02:02;99563.72;;;6.96;100.00
58598;BME280;60319;46.908;16.848;2022-10-15T03:07:03;99566.00;;;6.89;100.00
58598;BME280;60319;46.908;16.848;2022-10-15T03:12:03;99570.78;;;6.84;100.00
58598;BME280;60319;46.908;16.848;2022-10-15T03:17:04;99568.03;;;6.74;100.00
58598;BME280;60319;46.908;16.848;2022-10-15T03:22:04;99553.47;;;6.68;100.00
58598;BME280;60319;46.908;16.848;2022-10-15T03:27:05;99558.63;;;6.59;100.00
58598;BME280;60319;46.908;16.848;2022-10-15T03:32:05;99548.91;;;6.59;100.00
58598;BME280;60319;46.908;16.848;2022-10-15T03:37:05;99541.09;;;6.58;100.00
58598;BME280;60319;46.908;16.848;2022-10-15T03:42:06;99549.13;;;6.56;100.00
58598;BME280;60319;46.908;16.848;2022-10-15T03:47:06;99541.44;;;6.53;100.00
58598;BME280;60319;46.908;16.848;2022-10-15T03:52:07;99543.97;;;6.54;100.00
58598;BME280;60319;46.908;16.848;2022-10-15T03:57:07;99536.28;;;6.51;100.00
58598;BME280;60319;46.908;16.848;2022-10-15T04:02:08;99537.47;;;6.47;100.00
58598;BME280;60319;46.908;16.848;2022-10-15T04:07:08;99529.09;;;6.53;100.00
58598;BME280;60319;46.908;16.848;2022-10-15T04:12:09;99543.00;;;6.55;100.00
58598;BME280;60319;46.908;16.848;2022-10-15T04:17:09;99528.72;;;6.58;100.00
58598;BME280;60319;46.908;16.848;2022-10-15T04:22:10;99538.34;;;6.59;100.00
58598;BME280;60319;46.908;16.848;2022-10-15T04:27:14;99533.06;;;6.71;100.00
58598;BME280;60319;46.908;16.848;2022-10-15T04:32:15;99529.69;;;6.80;100.00
58598;BME280;60319;46.908;16.848;2022-10-15T04:37:16;99519.88;;;6.93;100.00
58598;BME280;60319;46.908;16.848;2022-10-15T04:42:16;99518.44;;;7.01;100.00
58598;BME280;60319;46.908;16.848;2022-10-15T04:47:17;99513.09;;;7.12;100.00
58598;BME280;60319;46.908;16.848;2022-10-15T04:52:17;99522.59;;;7.26;100.00
58598;BME280;60319;46.908;16.848;2022-10-15T04:57:17;99526.28;;;7.35;100.00
58598;BME280;60319;46.908;16.848;2022-10-15T05:02:18;99531.31;;;7.50;100.00
58598;BME280;60319;46.908;16.848;2022-10-15T05:07:19;99528.16;;;7.67;100.00
58598;BME280;60319;46.908;16.848;2022-10-15T05:12:19;99527.47;;;7.87;100.00
58598;BME280;60319;46.908;16.848;2022-10-15T05:17:22;99526.63;;;7.97;100.00
58598;BME280;60319;46.908;16.848;2022-10-15T05:22:23;99539.03;;;8.18;100.00
58598;BME280;60319;46.908;16.848;2022-10-15T05:27:23;99539.28;;;8.37;100.00
58598;BME280;60319;46.908;16.848;2022-10-15T05:32:24;99544.50;;;8.59;100.00
58598;BME280;60319;46.908;16.848;2022-10-15T05:37:24;99549.38;;;8.85;100.00
58598;BME280;60319;46.908;16.848;2022-10-15T05:42:25;99539.44;;;9.19;100.00
58598;BME280;60319;46.908;16.848;2022-10-15T05:47:26;99549.88;;;9.51;100.00
58598;BME280;60319;46.908;16.848;2022-10-15T05:52:26;99558.03;;;9.80;100.00
58598;BME280;60319;46.908;16.848;2022-10-15T05:57:27;99563.63;;;9.86;100.00
58598;BME280;60319;46.908;16.848;2022-10-15T06:02:27;99559.59;;;10.02;100.00
58598;BME280;60319;46.908;16.848;2022-10-15T06:07:28;99567.00;;;10.18;100.00
58598;BME280;60319;46.908;16.848;2022-10-15T06:12:28;99558.91;;;10.30;100.00
58598;BME280;60319;46.908;16.848;2022-10-15T06:17:29;99577.50;;;10.59;100.00
58598;BME280;60319;46.908;16.848;2022-10-15T06:22:29;99570.16;;;10.91;100.00
58598;BME280;60319;46.908;16.848;2022-10-15T06:27:30;99578.66;;;10.95;100.00
58598;BME280;60319;46.908;16.848;2022-10-15T06:32:32;99576.22;;;11.11;100.00
58598;BME280;60319;46.908;16.848;2022-10-15T06:37:36;99575.06;;;11.24;100.00
58598;BME280;60319;46.908;16.848;2022-10-15T06:42:36;99583.91;;;11.42;100.00
58598;BME280;60319;46.908;16.848;2022-10-15T06:47:40;99589.59;;;11.58;100.00
58598;BME280;60319;46.908;16.848;2022-10-15T06:52:40;99598.47;;;11.76;100.00
58598;BME280;60319;46.908;16.848;2022-10-15T06:57:41;99597.78;;;11.92;100.00
58598;BME280;60319;46.908;16.848;2022-10-15T07:02:42;99598.16;;;12.07;100.00
58598;BME280;60319;46.908;16.848;2022-10-15T07:07:53;99605.13;;;12.27;100.00
58598;BME280;60319;46.908;16.848;2022-10-15T07:12:54;99611.00;;;12.49;100.00
58598;BME280;60319;46.908;16.848;2022-10-15T07:17:55;99606.56;;;12.57;100.00
58598;BME280;60319;46.908;16.848;2022-10-15T07:22:58;99610.19;;;13.01;100.00
58598;BME280;60319;46.908;16.848;2022-10-15T07:27:59;99611.47;;;13.50;100.00
58598;BME280;60319;46.908;16.848;2022-10-15T07:32:59;99605.13;;;14.19;100.00
58598;BME280;60319;46.908;16.848;2022-10-15T07:38:00;99611.69;;;15.32;100.00
58598;BME280;60319;46.908;16.848;2022-10-15T07:43:01;99607.56;;;16.24;100.00
58598;BME280;60319;46.908;16.848;2022-10-15T07:48:01;99611.66;;;16.59;100.00
58598;BME280;60319;46.908;16.848;2022-10-15T07:53:02;99611.28;;;16.38;100.00
58598;BME280;60319;46.908;16.848;2022-10-15T07:58:05;99608.47;;;16.93;100.00
58598;BME280;60319;46.908;16.848;2022-10-15T08:03:07;99609.78;;;16.98;100.00
58598;BME280;60319;46.908;16.848;2022-10-15T08:08:11;99611.47;;;17.44;100.00
58598;BME280;60319;46.908;16.848;2022-10-15T08:13:11;99604.78;;;16.56;100.00
58598;BME280;60319;46.908;16.848;2022-10-15T08:18:12;99615.28;;;16.42;100.00
58598;BME280;60319;46.908;16.848;2022-10-15T08:23:14;99610.44;;;16.61;100.00
58598;BME280;60319;46.908;16.848;2022-10-15T08:28:15;99614.81;;;16.62;100.00
58598;BME280;60319;46.908;16.848;2022-10-15T08:33:18;99616.56;;;16.32;100.00
58598;BME280;60319;46.908;16.848;2022-10-15T08:38:19;99609.38;;;16.47;100.00
58598;BME280;60319;46.908;16.848;2022-10-15T08:43:28;99596.91;;;16.54;100.00
58598;BME280;60319;46.908;16.848;2022-10-15T08:48:32;99605.06;;;16.61;100.00
58598;BME280;60319;46.908;16.848;2022-10-15T08:53:42;99605.66;;;16.87;100.00
58598;BME280;60319;46.908;16.848;2022-10-15T08:59:16;99610.56;;;16.68;100.00
58598;BME280;60319;46.908;16.848;2022-10-15T09:04:31;99609.22;;;16.49;100.00
58598;BME280;60319;46.908;16.848;2022-10-15T09:09:47;99598.72;;;16.15;100.00
58598;BME280;60319;46.908;16.848;2022-10-15T09:14:48;99608.63;;;15.83;100.00
58598;BME280;60319;46.908;16.848;2022-10-15T09:19:54;99609.03;;;15.72;100.00
58598;BME280;60319;46.908;16.848;2022-10-15T09:24:55;99618.03;;;15.79;100.00
58598;BME280;60319;46.908;16.848;2022-10-15T09:35:03;99626.06;;;15.79;100.00
58598;BME280;60319;46.908;16.848;2022-10-15T09:45:29;99607.78;;;16.14;100.00
58598;BME280;60319;46.908;16.848;2022-10-15T09:50:43;99618.22;;;16.33;100.00
58598;BME280;60319;46.908;16.848;2022-10-15T10:00:54;99615.19;;;16.74;100.00
58598;BME280;60319;46.908;16.848;2022-10-15T10:06:10;99609.91;;;16.81;100.00
58598;BME280;60319;46.908;16.848;2022-10-15T10:11:11;99605.53;;;17.03;100.00
58598;BME280;60319;46.908;16.848;2022-10-15T10:16:13;99603.19;;;17.00;100.00
58598;BME280;60319;46.908;16.848;2022-10-15T10:21:29;99608.03;;;17.20;98.60
58598;BME280;60319;46.908;16.848;2022-10-15T10:26:33;99603.56;;;16.97;97.64
58598;BME280;60319;46.908;16.848;2022-10-15T10:31:38;99598.69;;;17.16;99.17
58598;BME280;60319;46.908;16.848;2022-10-15T10:36:47;99594.75;;;16.88;99.43
58598;BME280;60319;46.908;16.848;2022-10-15T10:47:21;99602.16;;;17.01;100.00
58598;BME280;60319;46.908;16.848;2022-10-15T10:52:30;99594.13;;;17.46;100.00
58598;BME280;60319;46.908;16.848;2022-10-15T10:57:47;99586.97;;;17.69;100.00
58598;BME280;60319;46.908;16.848;2022-10-15T11:02:50;99589.09;;;17.58;98.29
58598;BME280;60319;46.908;16.848;2022-10-15T11:13:22;99579.22;;;17.14;96.63
58598;BME280;60319;46.908;16.848;2022-10-15T11:39:25;99571.47;;;16.50;100.00
58598;BME280;60319;46.908;16.848;2022-10-15T11:44:37;99569.44;;;16.52;100.00
58598;BME280;60319;46.908;16.848;2022-10-15T12:00:31;99572.47;;;16.49;100.00
58598;BME280;60319;46.908;16.848;2022-10-15T12:05:36;99577.09;;;16.40;100.00
58598;BME280;60319;46.908;16.848;2022-10-15T12:22:15;99563.91;;;16.30;100.00
58598;BME280;60319;46.908;16.848;2022-10-15T12:26:49;99555.59;;;16.25;100.00
58598;BME280;60319;46.908;16.848;2022-10-15T12:31:52;99552.53;;;16.28;100.00
58598;BME280;60319;46.908;16.848;2022-10-15T12:37:17;99569.28;;;16.30;100.00
58598;BME280;60319;46.908;16.848;2022-10-15T12:42:34;99557.44;;;16.25;100.00
58598;BME280;60319;46.908;16.848;2022-10-15T12:47:48;99557.00;;;16.13;100.00
58598;BME280;60319;46.908;16.848;2022-10-15T12:58:36;99540.47;;;16.24;100.00
58598;BME280;60319;46.908;16.848;2022-10-15T13:03:43;99534.31;;;16.39;100.00
58598;BME280;60319;46.908;16.848;2022-10-15T13:09:20;99519.34;;;16.29;100.00
58598;BME280;60319;46.908;16.848;2022-10-15T13:19:29;99514.44;;;16.48;100.00
58598;BME280;60319;46.908;16.848;2022-10-15T13:24:43;99518.81;;;16.49;100.00
58598;BME280;60319;46.908;16.848;2022-10-15T13:29:59;99523.34;;;16.49;100.00
58598;BME280;60319;46.908;16.848;2022-10-15T13:35:02;99523.22;;;16.42;100.00
58598;BME280;60319;46.908;16.848;2022-10-15T13:40:25;99534.22;;;16.32;100.00
58598;BME280;60319;46.908;16.848;2022-10-15T13:45:27;99525.81;;;16.35;100.00
58598;BME280;60319;46.908;16.848;2022-10-15T13:50:32;99528.00;;;16.32;100.00
58598;BME280;60319;46.908;16.848;2022-10-15T13:55:42;99531.31;;;16.18;100.00
58598;BME280;60319;46.908;16.848;2022-10-15T14:00:58;99539.34;;;16.18;100.00
58598;BME280;60319;46.908;16.848;2022-10-15T14:06:15;99538.06;;;16.14;100.00
58598;BME280;60319;46.908;16.848;2022-10-15T14:11:18;99538.59;;;16.10;100.00
58598;BME280;60319;46.908;16.848;2022-10-15T14:16:43;99545.03;;;16.00;100.00
58598;BME280;60319;46.908;16.848;2022-10-15T14:21:46;99542.22;;;15.94;100.00
58598;BME280;60319;46.908;16.848;2022-10-15T14:26:48;99556.16;;;15.89;100.00
58598;BME280;60319;46.908;16.848;2022-10-15T14:31:48;99559.16;;;15.86;100.00
58598;BME280;60319;46.908;16.848;2022-10-15T14:36:49;99566.41;;;15.85;100.00
58598;BME280;60319;46.908;16.848;2022-10-15T14:47:02;99565.91;;;15.82;100.00
58598;BME280;60319;46.908;16.848;2022-10-15T14:52:10;99566.41;;;15.85;100.00
58598;BME280;60319;46.908;16.848;2022-10-15T14:57:28;99560.66;;;15.88;100.00
58598;BME280;60319;46.908;16.848;2022-10-15T15:02:29;99555.19;;;15.82;100.00
58598;BME280;60319;46.908;16.848;2022-10-15T15:07:30;99553.56;;;15.72;100.00
58598;BME280;60319;46.908;16.848;2022-10-15T15:12:31;99548.44;;;15.62;100.00
58598;BME280;60319;46.908;16.848;2022-10-15T15:17:32;99544.66;;;15.48;100.00
58598;BME280;60319;46.908;16.848;2022-10-15T15:22:33;99542.97;;;15.47;100.00
58598;BME280;60319;46.908;16.848;2022-10-15T15:27:35;99542.34;;;15.45;100.00
58598;BME280;60319;46.908;16.848;2022-10-15T15:32:36;99538.00;;;15.36;100.00
58598;BME280;60319;46.908;16.848;2022-10-15T15:37:37;99535.72;;;15.24;100.00
58598;BME280;60319;46.908;16.848;2022-10-15T15:42:37;99546.00;;;15.12;100.00
58598;BME280;60319;46.908;16.848;2022-10-15T15:47:38;99552.38;;;15.03;100.00
58598;BME280;60319;46.908;16.848;2022-10-15T15:52:38;99550.91;;;14.92;100.00
58598;BME280;60319;46.908;16.848;2022-10-15T15:57:39;99551.94;;;14.83;100.00
58598;BME280;60319;46.908;16.848;2022-10-15T16:02:40;99561.97;;;14.72;100.00
58598;BME280;60319;46.908;16.848;2022-10-15T16:07:43;99569.50;;;14.60;100.00
58598;BME280;60319;46.908;16.848;2022-10-15T16:12:44;99581.38;;;14.49;100.00
58598;BME280;60319;46.908;16.848;2022-10-15T16:17:44;99589.44;;;14.41;100.00
58598;BME280;60319;46.908;16.848;2022-10-15T16:22:49;99590.09;;;14.35;100.00
58598;BME280;60319;46.908;16.848;2022-10-15T16:27:50;99594.78;;;14.33;100.00
58598;BME280;60319;46.908;16.848;2022-10-15T16:32:51;99603.28;;;14.28;100.00
58598;BME280;60319;46.908;16.848;2022-10-15T16:37:51;99606.78;;;14.20;100.00
58598;BME280;60319;46.908;16.848;2022-10-15T16:42:55;99611.63;;;14.17;100.00
58598;BME280;60319;46.908;16.848;2022-10-15T16:47:55;99629.19;;;14.11;100.00
58598;BME280;60319;46.908;16.848;2022-10-15T16:52:56;99629.81;;;14.05;100.00
58598;BME280;60319;46.908;16.848;2022-10-15T16:57:56;99639.69;;;14.04;100.00
58598;BME280;60319;46.908;16.848;2022-10-15T17:02:57;99640.03;;;14.01;100.00
58598;BME280;60319;46.908;16.848;2022-10-15T17:08:01;99654.88;;;13.95;100.00
58598;BME280;60319;46.908;16.848;2022-10-15T17:13:01;99653.53;;;13.91;100.00
58598;BME280;60319;46.908;16.848;2022-10-15T17:18:02;99644.31;;;13.85;100.00
58598;BME280;60319;46.908;16.848;2022-10-15T17:23:02;99662.84;;;13.79;100.00
58598;BME280;60319;46.908;16.848;2022-10-15T17:28:03;99659.47;;;13.68;100.00
58598;BME280;60319;46.908;16.848;2022-10-15T17:33:04;99667.28;;;13.61;100.00
58598;BME280;60319;46.908;16.848;2022-10-15T17:38:04;99679.53;;;13.46;100.00
58598;BME280;60319;46.908;16.848;2022-10-15T17:43:05;99685.94;;;13.27;100.00
58598;BME280;60319;46.908;16.848;2022-10-15T17:48:05;99690.97;;;13.30;100.00
58598;BME280;60319;46.908;16.848;2022-10-15T17:53:06;99696.59;;;13.27;100.00
58598;BME280;60319;46.908;16.848;2022-10-15T17:58:06;99700.09;;;13.19;100.00
58598;BME280;60319;46.908;16.848;2022-10-15T18:03:07;99700.19;;;13.09;100.00
58598;BME280;60319;46.908;16.848;2022-10-15T18:08:07;99705.78;;;12.97;100.00
58598;BME280;60319;46.908;16.848;2022-10-15T18:13:09;99709.13;;;12.81;100.00
58598;BME280;60319;46.908;16.848;2022-10-15T18:18:10;99702.81;;;12.64;100.00
58598;BME280;60319;46.908;16.848;2022-10-15T18:23:10;99707.94;;;12.39;100.00
58598;BME280;60319;46.908;16.848;2022-10-15T18:28:11;99717.19;;;12.35;100.00
58598;BME280;60319;46.908;16.848;2022-10-15T18:33:12;99720.69;;;12.17;100.00
58598;BME280;60319;46.908;16.848;2022-10-15T18:38:13;99728.47;;;12.01;100.00
58598;BME280;60319;46.908;16.848;2022-10-15T18:43:15;99728.53;;;11.81;100.00
58598;BME280;60319;46.908;16.848;2022-10-15T18:48:15;99728.59;;;11.71;100.00
58598;BME280;60319;46.908;16.848;2022-10-15T18:53:16;99739.03;;;11.54;100.00
58598;BME280;60319;46.908;16.848;2022-10-15T18:58:16;99748.19;;;11.32;100.00
58598;BME280;60319;46.908;16.848;2022-10-15T19:03:17;99748.75;;;11.26;100.00
58598;BME280;60319;46.908;16.848;2022-10-15T19:08:17;99751.31;;;11.17;100.00
58598;BME280;60319;46.908;16.848;2022-10-15T19:13:18;99747.41;;;11.02;100.00
58598;BME280;60319;46.908;16.848;2022-10-15T19:18:18;99755.78;;;10.97;100.00
58598;BME280;60319;46.908;16.848;2022-10-15T19:23:20;99768.41;;;10.85;100.00
58598;BME280;60319;46.908;16.848;2022-10-15T19:28:21;99765.75;;;10.75;100.00
58598;BME280;60319;46.908;16.848;2022-10-15T19:33:21;99764.75;;;10.66;100.00
58598;BME280;60319;46.908;16.848;2022-10-15T19:38:22;99771.63;;;10.59;100.00
58598;BME280;60319;46.908;16.848;2022-10-15T19:43:23;99770.47;;;10.52;100.00
58598;BME280;60319;46.908;16.848;2022-10-15T19:48:24;99779.00;;;10.46;100.00
58598;BME280;60319;46.908;16.848;2022-10-15T19:53:24;99777.13;;;10.36;100.00
58598;BME280;60319;46.908;16.848;2022-10-15T19:58:25;99776.41;;;10.34;100.00
58598;BME280;60319;46.908;16.848;2022-10-15T20:03:28;99793.63;;;10.30;100.00
58598;BME280;60319;46.908;16.848;2022-10-15T20:08:29;99801.88;;;10.27;100.00
58598;BME280;60319;46.908;16.848;2022-10-15T20:13:30;99803.28;;;10.31;100.00
58598;BME280;60319;46.908;16.848;2022-10-15T20:18:31;99815.88;;;10.39;100.00
58598;BME280;60319;46.908;16.848;2022-10-15T20:23:31;99814.63;;;10.43;100.00
58598;BME280;60319;46.908;16.848;2022-10-15T20:28:35;99822.50;;;10.45;100.00
58598;BME280;60319;46.908;16.848;2022-10-15T20:33:36;99827.56;;;10.48;100.00
58598;BME280;60319;46.908;16.848;2022-10-15T20:38:37;99828.69;;;10.45;100.00
58598;BME280;60319;46.908;16.848;2022-10-15T20:43:38;99830.84;;;10.40;100.00
58598;BME280;60319;46.908;16.848;2022-10-15T20:48:39;99830.56;;;10.33;100.00
58598;BME280;60319;46.908;16.848;2022-10-15T20:53:40;99828.84;;;10.22;100.00
58598;BME280;60319;46.908;16.848;2022-10-15T20:58:42;99829.38;;;10.16;100.00
58598;BME280;60319;46.908;16.848;2022-10-15T21:03:44;99841.81;;;10.06;100.00
58598;BME280;60319;46.908;16.848;2022-10-15T21:08:44;99848.88;;;9.95;100.00
58598;BME280;60319;46.908;16.848;2022-10-15T21:13:45;99851.06;;;9.90;100.00
58598;BME280;60319;46.908;16.848;2022-10-15T21:18:45;99858.72;;;9.83;100.00
58598;BME280;60319;46.908;16.848;2022-10-15T21:23:46;99858.41;;;9.76;100.00
58598;BME280;60319;46.908;16.848;2022-10-15T21:28:46;99859.22;;;9.67;100.00
58598;BME280;60319;46.908;16.848;2022-10-15T21:33:47;99855.63;;;9.57;100.00
58598;BME280;60319;46.908;16.848;2022-10-15T21:38:54;99869.88;;;9.56;100.00
58598;BME280;60319;46.908;16.848;2022-10-15T21:43:55;99868.84;;;9.47;100.00
58598;BME280;60319;46.908;16.848;2022-10-15T21:48:56;99864.50;;;9.46;100.00
58598;BME280;60319;46.908;16.848;2022-10-15T21:53:58;99850.44;;;9.34;100.00
58598;BME280;60319;46.908;16.848;2022-10-15T21:58:59;99847.47;;;9.27;100.00
58598;BME280;60319;46.908;16.848;2022-10-15T22:04:04;99851.47;;;9.21;100.00
58598;BME280;60319;46.908;16.848;2022-10-15T22:09:06;99856.41;;;9.15;100.00
58598;BME280;60319;46.908;16.848;2022-10-15T22:14:10;99865.34;;;9.14;100.00
58598;BME280;60319;46.908;16.848;2022-10-15T22:19:13;99862.00;;;9.11;100.00
58598;BME280;60319;46.908;16.848;2022-10-15T22:24:17;99858.03;;;9.06;100.00
58598;BME280;60319;46.908;16.848;2022-10-15T22:29:22;99866.25;;;9.03;100.00
58598;BME280;60319;46.908;16.848;2022-10-15T22:34:23;99870.56;;;9.04;100.00
58598;BME280;60319;46.908;16.848;2022-10-15T22:39:23;99871.66;;;9.01;100.00
58598;BME280;60319;46.908;16.848;2022-10-15T22:44:24;99880.84;;;8.97;100.00
58598;BME280;60319;46.908;16.848;2022-10-15T22:49:24;99870.81;;;9.01;100.00
58598;BME280;60319;46.908;16.848;2022-10-15T22:54:25;99870.22;;;8.97;100.00
58598;BME280;60319;46.908;16.848;2022-10-15T22:59:26;99877.81;;;9.02;100.00
58598;BME280;60319;46.908;16.848;2022-10-15T23:04:26;99883.13;;;9.02;100.00
58598;BME280;60319;46.908;16.848;2022-10-15T23:09:27;99889.28;;;8.91;100.00
58598;BME280;60319;46.908;16.848;2022-10-15T23:14:27;99903.88;;;8.85;100.00
58598;BME280;60319;46.908;16.848;2022-10-15T23:19:28;99912.94;;;8.82;100.00
58598;BME280;60319;46.908;16.848;2022-10-15T23:24:28;99906.19;;;8.78;100.00
58598;BME280;60319;46.908;16.848;2022-10-15T23:29:32;99907.78;;;8.69;100.00
58598;BME280;60319;46.908;16.848;2022-10-15T23:34:32;99899.47;;;8.63;100.00
58598;BME280;60319;46.908;16.848;2022-10-15T23:39:33;99905.63;;;8.63;100.00
58598;BME280;60319;46.908;16.848;2022-10-15T23:44:33;99913.94;;;8.58;100.00
58598;BME280;60319;46.908;16.848;2022-10-15T23:49:34;99915.22;;;8.53;100.00
58598;BME280;60319;46.908;16.848;2022-10-15T23:54:34;99915.16;;;8.54;100.00
58598;BME280;60319;46.908;16.848;2022-10-15T23:59:35;99916.78;;;8.44;100.00
